Weather at Stauss Hospital - Galena Heliport

Public forecast

Using degrees Fahrenheit for public forecast. Weather courtesy of forecast.io.

Closest aviation weather report (METAR) to Stauss Hospital - Galena Heliport

Closest report is Dubuque Regional Airport, 12.1 nm (22.4 km) W. Retrieved 2021/06/23 02:53 UTC (33 minutes ago):

KDBQ 230253Z AUTO 16005KT 10SM CLR 16/14 A2993 RMK AO2 SLP133 T01610144 53013

Closest aviation forecast (TAF) to Stauss Hospital - Galena Heliport

Closest forecast is Dubuque Regional Airport, 12.1 nm (22.4 km) W. Retrieved 2021-06-23 00:30 UTC (3 hours ago):

TAF KDBQ 222328Z 2300/2324 19011G18KT P6SM SCT100 BKN250 FM230100 17008KT 6SM -SHRA VCTS BKN070CB FM230230 17009KT P6SM BKN100 FM230500 19011KT P6SM VCTS BKN050CB FM231000 18010KT P6SM BKN070 FM231700 20014G22KT P6SM SCT040